Terminal Aerodrome Forecast
Issued by NWS Charleston, WV

Current Version | Previous Version | Graphics & Text | Print | Product List | Glossary On
Versions: 1 2 3 4 5 6 7 8 9 10 11 12 13 14 15 16 17 18 19 20 21 22 23 24 25 26 27 28
605
FTUS41 KRLX 191314 AAA
TAFEKN
TAF AMD
KEKN 191314Z 1913/2012 00000KT P6SM OVC015
     FM191800 VRB03KT P6SM FEW150
     FM201000 16005KT 5SM -SHRA OVC035=

USA.gov is the U.S. government's official web portal to all federal, state and local government web resources and services.